TimePDT,TemperatureF,Dew PointF,Humidity,Sea Level PressureIn,VisibilityMPH,Wind Direction,Wind SpeedMPH,Gust SpeedMPH,PrecipitationIn,Events,Conditions,WindDirDegrees,DateUTC
12:53 AM,55.0,30.0,38,29.89,10.0,WSW,3.5,-,N/A,,Clear,240,2012-10-28 07:53:00
1:53 AM,55.9,24.1,29,29.89,10.0,WSW,6.9,-,N/A,,Clear,250,2012-10-28 08:53:00
2:53 AM,55.0,24.1,30,29.89,10.0,WNW,5.8,-,N/A,,Clear,290,2012-10-28 09:53:00
3:53 AM,55.9,23.0,28,29.88,10.0,West,4.6,-,N/A,,Clear,280,2012-10-28 10:53:00
4:53 AM,53.1,26.1,35,29.89,10.0,WSW,3.5,-,N/A,,Clear,240,2012-10-28 11:53:00
5:53 AM,51.1,26.1,38,29.90,10.0,WSW,4.6,-,N/A,,Clear,250,2012-10-28 12:53:00
6:53 AM,54.0,23.0,30,29.91,10.0,SW,3.5,-,N/A,,Clear,220,2012-10-28 13:53:00
7:53 AM,57.0,28.0,33,29.94,10.0,Calm,Calm,-,N/A,,Clear,0,2012-10-28 14:53:00
8:53 AM,64.9,34.0,32,29.95,10.0,West,3.5,-,N/A,,Clear,280,2012-10-28 15:53:00
9:53 AM,72.0,35.1,26,29.96,10.0,Calm,Calm,-,N/A,,Clear,0,2012-10-28 16:53:00
10:53 AM,80.1,34.0,19,29.96,10.0,Calm,Calm,-,N/A,,Clear,0,2012-10-28 17:53:00
11:53 AM,84.0,33.1,16,29.95,10.0,Calm,Calm,-,N/A,,Clear,0,2012-10-28 18:53:00
12:53 PM,86.0,28.0,12,29.93,10.0,Calm,Calm,-,N/A,,Clear,0,2012-10-28 19:53:00
1:53 PM,88.0,25.0,10,29.90,10.0,Calm,Calm,-,N/A,,Clear,0,2012-10-28 20:53:00
2:53 PM,88.0,21.9,9,29.88,10.0,Calm,Calm,-,N/A,,Clear,0,2012-10-28 21:53:00
3:53 PM,90.0,23.0,9,29.87,10.0,Variable,3.5,-,N/A,,Clear,0,2012-10-28 22:53:00
4:49 PM,89.6,17.6,7,29.87,9.0,North,3.5,-,N/A,,Partly Cloudy,350,2012-10-28 23:49:00
4:53 PM,89.1,18.0,7,29.88,10.0,North,3.5,-,N/A,,Clear,350,2012-10-28 23:53:00
5:53 PM,82.9,21.0,10,29.88,10.0,Calm,Calm,-,N/A,,Clear,0,2012-10-29 00:53:00
6:53 PM,75.9,27.0,16,29.89,10.0,South,4.6,-,N/A,,Clear,180,2012-10-29 01:53:00
7:53 PM,72.0,34.0,25,29.90,10.0,SSW,3.5,-,N/A,,Clear,200,2012-10-29 02:53:00
8:53 PM,66.9,37.0,33,29.92,10.0,West,3.5,-,N/A,,Clear,280,2012-10-29 03:53:00
9:53 PM,61.0,36.0,39,29.94,10.0,WNW,3.5,-,N/A,,Clear,290,2012-10-29 04:53:00
10:53 PM,63.0,34.0,34,29.94,10.0,Calm,Calm,-,N/A,,Clear,0,2012-10-29 05:53:00
11:53 PM,63.0,30.9,30,29.95,10.0,SW,4.6,-,N/A,,Clear,220,2012-10-29 06:53:00